Time;durP1;ratioP1;P1;durP2;ratioP2;P2;SDS_P1;SDS_P2;PMS_P1;PMS_P2;Temp;Humidity;BMP_temperature;BMP_pressure;BME280_temperature;BME280_humidity;BME280_pressure;Samples;Min_cycle;Max_cycle;Signal;HPM_P1;HPM_P2
2021/03/07 00:00:27;;;;;;;0.82;0.82;;;6.30;75.30;;;;;;5114558;27;20443;-74
2021/03/07 00:02:53;;;;;;;1.45;0.85;;;6.30;75.40;;;;;;5115103;28;20022;-74
2021/03/07 00:05:19;;;;;;;1.00;1.00;;;6.30;75.40;;;;;;5114074;28;20027;-74
2021/03/07 00:07:47;;;;;;;0.95;0.77;;;6.20;75.40;;;;;;5113848;28;20119;-73
2021/03/07 00:10:15;;;;;;;7.15;2.05;;;6.20;75.50;;;;;;5115091;28;20049;-73
2021/03/07 00:12:42;;;;;;;5.15;2.05;;;6.20;75.50;;;;;;5114145;28;20035;-74
2021/03/07 00:15:10;;;;;;;1.27;0.85;;;6.20;75.50;;;;;;5113935;28;20080;-74
2021/03/07 00:17:39;;;;;;;0.77;0.77;;;6.30;75.70;;;;;;5114320;28;20028;-74
2021/03/07 00:20:10;;;;;;;1.23;1.13;;;6.30;75.70;;;;;;5112150;28;20055;-73
2021/03/07 00:22:37;;;;;;;1.05;1.00;;;6.30;75.60;;;;;;5114577;28;20047;-74
2021/03/07 00:25:05;;;;;;;1.40;1.30;;;6.30;75.50;;;;;;5114580;28;20050;-74
2021/03/07 00:27:31;;;;;;;1.33;1.23;;;6.30;75.70;;;;;;5113644;28;20177;-74
2021/03/07 00:29:56;;;;;;;2.17;1.10;;;6.20;75.60;;;;;;5114437;28;20114;-73
2021/03/07 00:32:25;;;;;;;1.58;0.98;;;6.20;75.60;;;;;;5114438;28;20059;-74
2021/03/07 00:34:51;;;;;;;1.30;1.00;;;6.30;75.60;;;;;;5112876;28;20121;-73
2021/03/07 00:37:16;;;;;;;1.65;1.23;;;6.20;75.60;;;;;;5114627;28;20023;-73
2021/03/07 00:39:42;;;;;;;0.75;0.75;;;6.20;75.50;;;;;;5114428;28;20043;-74
2021/03/07 00:42:08;;;;;;;1.58;0.70;;;6.20;75.50;;;;;;5113345;28;20031;-74
2021/03/07 00:44:34;;;;;;;2.33;1.08;;;6.20;75.50;;;;;;5114079;28;20043;-74
2021/03/07 00:47:00;;;;;;;0.75;0.75;;;6.20;75.50;;;;;;5114137;28;20084;-73
2021/03/07 00:49:32;;;;;;;0.80;0.80;;;6.20;75.50;;;;;;5113476;28;20024;-73
2021/03/07 00:51:58;;;;;;;11.90;1.73;;;6.20;75.70;;;;;;5114317;28;20385;-73
2021/03/07 00:54:24;;;;;;;4.63;1.30;;;6.10;75.80;;;;;;5114022;28;20081;-73
2021/03/07 00:56:51;;;;;;;1.70;1.52;;;6.10;75.90;;;;;;5113256;28;20024;-73
2021/03/07 00:59:17;;;;;;;0.90;0.90;;;6.20;76.00;;;;;;5113213;28;20092;-73
2021/03/07 01:01:43;;;;;;;0.70;0.70;;;6.20;76.10;;;;;;5113110;28;20031;-74
2021/03/07 01:04:08;;;;;;;4.95;1.40;;;6.20;76.00;;;;;;5114022;28;20036;-74
2021/03/07 01:06:34;;;;;;;1.45;1.25;;;6.20;75.90;;;;;;5113831;28;20103;-74
2021/03/07 01:09:00;;;;;;;0.85;0.70;;;6.20;76.00;;;;;;5113100;28;20523;-74
2021/03/07 01:11:26;;;;;;;0.70;0.70;;;6.20;75.90;;;;;;5113641;27;20042;-73
2021/03/07 01:13:52;;;;;;;2.28;1.02;;;6.20;75.90;;;;;;5113615;28;20035;-73
2021/03/07 01:16:19;;;;;;;1.85;0.98;;;6.20;76.00;;;;;;5112986;28;20494;-73
2021/03/07 01:18:44;;;;;;;1.33;1.15;;;6.20;76.00;;;;;;5112660;28;20467;-73
2021/03/07 01:21:10;;;;;;;3.38;1.63;;;6.20;76.00;;;;;;5113411;28;20161;-73
2021/03/07 01:23:36;;;;;;;5.57;1.35;;;6.20;76.00;;;;;;5112805;28;20379;-73
2021/03/07 01:26:02;;;;;;;1.38;0.95;;;6.20;76.00;;;;;;5113437;28;20036;-73
2021/03/07 01:28:28;;;;;;;1.50;1.15;;;6.20;76.00;;;;;;5113279;28;20027;-73
2021/03/07 01:30:55;;;;;;;0.88;0.88;;;6.30;76.00;;;;;;5113079;28;20378;-74
2021/03/07 01:33:21;;;;;;;0.40;0.40;;;6.20;75.90;;;;;;5113250;28;20057;-73
2021/03/07 01:35:47;;;;;;;1.10;1.05;;;6.20;75.90;;;;;;5113525;28;20055;-73
2021/03/07 01:38:13;;;;;;;8.23;1.48;;;6.30;75.90;;;;;;5112688;28;20109;-73
2021/03/07 01:40:52;;;;;;;0.77;0.77;;;6.30;75.90;;;;;;5113014;28;20063;-73
2021/03/07 01:43:20;;;;;;;1.02;0.80;;;6.30;75.90;;;;;;5113250;28;20057;-73
2021/03/07 01:45:46;;;;;;;1.05;0.82;;;6.30;75.90;;;;;;5112523;28;20063;-73
2021/03/07 01:48:13;;;;;;;2.40;1.45;;;6.20;75.80;;;;;;5105113;28;20468;-73
2021/03/07 01:50:47;;;;;;;1.75;1.35;;;6.20;76.40;;;;;;5107176;28;20560;-74
2021/03/07 01:53:15;;;;;;;1.02;0.90;;;6.20;75.90;;;;;;5112763;28;20035;-75
2021/03/07 01:55:41;;;;;;;0.75;0.75;;;6.20;75.90;;;;;;5113035;28;20482;-74
2021/03/07 01:58:28;;;;;;;2.88;1.15;;;6.20;76.00;;;;;;5112476;28;20073;-75
2021/03/07 02:00:55;;;;;;;2.28;1.15;;;6.20;75.90;;;;;;5112981;28;20107;-75
2021/03/07 02:03:21;;;;;;;5.13;1.38;;;6.30;76.00;;;;;;5113187;28;20023;-74
2021/03/07 02:05:48;;;;;;;1.92;1.30;;;6.30;76.00;;;;;;5112334;28;20050;-75
2021/03/07 02:08:15;;;;;;;1.13;0.90;;;6.30;76.00;;;;;;5111563;28;20073;-74
2021/03/07 02:10:52;;;;;;;0.57;0.57;;;6.30;76.00;;;;;;5113066;28;20036;-74
2021/03/07 02:13:38;;;;;;;1.27;1.00;;;6.30;76.00;;;;;;5112247;28;20031;-75
2021/03/07 02:16:08;;;;;;;0.98;0.93;;;6.30;76.20;;;;;;5113032;28;20397;-74
2021/03/07 02:18:39;;;;;;;0.60;0.55;;;6.30;75.90;;;;;;5098804;28;20050;-75
2021/03/07 02:21:27;;;;;;;1.00;0.93;;;6.30;75.80;;;;;;5112427;28;20106;-74
2021/03/07 02:24:00;;;;;;;0.93;0.80;;;6.20;75.70;;;;;;5099539;28;20065;-74
2021/03/07 02:26:26;;;;;;;0.55;0.55;;;6.20;75.70;;;;;;5111493;28;20141;-74
2021/03/07 02:28:52;;;;;;;10.63;1.20;;;6.20;75.70;;;;;;5113509;28;20032;-74
2021/03/07 02:31:21;;;;;;;1.00;0.93;;;6.20;75.90;;;;;;5116826;28;20028;-74
2021/03/07 02:33:50;;;;;;;5.20;1.30;;;6.10;75.90;;;;;;5115951;28;20100;-74
2021/03/07 02:36:30;;;;;;;0.73;0.73;;;6.10;76.00;;;;;;5117014;28;20058;-74
2021/03/07 02:38:58;;;;;;;0.50;0.50;;;6.10;76.00;;;;;;5116659;28;20424;-74
2021/03/07 02:41:25;;;;;;;0.75;0.75;;;6.10;76.00;;;;;;5115852;28;20055;-74
2021/03/07 02:43:53;;;;;;;2.60;1.35;;;6.10;75.90;;;;;;5116331;28;20031;-74
2021/03/07 02:46:19;;;;;;;0.60;0.60;;;6.10;75.90;;;;;;5116627;28;20063;-73
2021/03/07 02:48:52;;;;;;;0.55;0.55;;;6.10;76.00;;;;;;5115996;28;20076;-74
2021/03/07 02:51:18;;;;;;;0.75;0.75;;;6.10;76.10;;;;;;5116324;28;20035;-74
2021/03/07 02:53:44;;;;;;;0.80;0.80;;;6.00;76.10;;;;;;5116382;28;20084;-74
2021/03/07 02:56:15;;;;;;;6.10;1.05;;;6.10;76.10;;;;;;5115355;28;20069;-74
2021/03/07 02:58:42;;;;;;;0.77;0.70;;;6.00;76.10;;;;;;5116529;28;20035;-74
2021/03/07 03:01:13;;;;;;;0.52;0.52;;;6.00;76.20;;;;;;5116201;28;20020;-74
2021/03/07 03:03:41;;;;;;;0.75;0.75;;;6.00;76.40;;;;;;5116260;28;20386;-74
2021/03/07 03:06:09;;;;;;;0.55;0.55;;;6.00;76.40;;;;;;5116114;28;20123;-73
2021/03/07 03:08:36;;;;;;;1.75;1.30;;;6.00;76.50;;;;;;5115432;28;20028;-73
2021/03/07 03:11:03;;;;;;;0.60;0.60;;;6.00;76.50;;;;;;5116363;28;20118;-73
2021/03/07 03:13:30;;;;;;;0.98;0.95;;;6.00;76.50;;;;;;5116013;28;20023;-74
2021/03/07 03:15:57;;;;;;;0.70;0.70;;;6.00;76.50;;;;;;5115537;28;20037;-74
2021/03/07 03:18:26;;;;;;;1.20;0.82;;;6.00;76.60;;;;;;5115783;28;20031;-74
2021/03/07 03:20:56;;;;;;;0.77;0.75;;;6.00;76.60;;;;;;5115991;27;20035;-74
2021/03/07 03:23:23;;;;;;;0.47;0.47;;;6.00;76.50;;;;;;5115114;28;20031;-73
2021/03/07 03:25:50;;;;;;;0.60;0.60;;;6.10;76.50;;;;;;5115616;28;20520;-73
2021/03/07 03:28:16;;;;;;;5.28;0.80;;;6.10;76.50;;;;;;5113609;28;20047;-73
2021/03/07 03:30:42;;;;;;;3.13;1.55;;;6.10;76.40;;;;;;5114607;28;20046;-74
2021/03/07 03:33:08;;;;;;;1.52;1.20;;;6.00;76.30;;;;;;5115483;28;20019;-73
2021/03/07 03:35:34;;;;;;;4.47;1.58;;;6.10;76.40;;;;;;5115598;28;20104;-73
2021/03/07 03:38:00;;;;;;;1.55;0.75;;;6.10;76.40;;;;;;5114826;28;20035;-73
2021/03/07 03:40:29;;;;;;;1.30;0.98;;;6.10;76.40;;;;;;5114232;28;20084;-73
2021/03/07 03:43:04;;;;;;;1.55;0.68;;;6.10;76.30;;;;;;5115620;28;20367;-74
2021/03/07 03:45:32;;;;;;;1.08;0.73;;;6.10;76.20;;;;;;5114464;28;20143;-73
2021/03/07 03:48:00;;;;;;;0.85;0.75;;;6.00;76.20;;;;;;5115379;28;20028;-73
2021/03/07 03:50:29;;;;;;;0.80;0.80;;;6.00;76.80;;;;;;5114682;28;20035;-73
2021/03/07 03:52:57;;;;;;;5.25;1.60;;;6.00;76.20;;;;;;5115506;28;20059;-73
2021/03/07 03:55:26;;;;;;;1.50;1.00;;;6.10;76.30;;;;;;5115204;28;20031;-73
2021/03/07 03:57:56;;;;;;;0.98;0.93;;;6.00;76.30;;;;;;5106738;28;20027;-73
2021/03/07 04:00:25;;;;;;;1.38;1.25;;;6.00;76.30;;;;;;5109260;28;20078;-73
2021/03/07 04:02:55;;;;;;;0.65;0.65;;;6.10;76.40;;;;;;5114980;28;20028;-73
2021/03/07 04:05:23;;;;;;;0.75;0.68;;;6.00;76.40;;;;;;5114533;28;20035;-73
2021/03/07 04:07:50;;;;;;;1.63;0.85;;;6.00;76.40;;;;;;5114851;28;20028;-74
2021/03/07 04:10:17;;;;;;;0.70;0.70;;;6.10;76.50;;;;;;5115069;28;20386;-73
2021/03/07 04:12:48;;;;;;;1.10;0.82;;;6.00;76.40;;;;;;5113410;28;20031;-73
2021/03/07 04:15:17;;;;;;;8.30;0.85;;;6.00;76.30;;;;;;5113718;28;20039;-73
2021/03/07 04:17:45;;;;;;;2.15;1.25;;;6.00;76.30;;;;;;5114572;28;20470;-73
2021/03/07 04:20:12;;;;;;;2.58;0.98;;;6.00;76.40;;;;;;5114288;28;20161;-73
2021/03/07 04:22:38;;;;;;;0.77;0.77;;;6.00;76.40;;;;;;5114567;28;20038;-73
2021/03/07 04:25:05;;;;;;;3.58;1.40;;;5.90;76.40;;;;;;5114732;28;20035;-74
2021/03/07 04:27:32;;;;;;;0.73;0.73;;;6.00;76.50;;;;;;5113860;28;20081;-74
2021/03/07 04:29:58;;;;;;;1.17;1.00;;;5.90;77.20;;;;;;5114504;28;20028;-74
2021/03/07 04:32:24;;;;;;;3.78;1.58;;;6.00;76.60;;;;;;5114719;28;20046;-74
2021/03/07 04:34:50;;;;;;;0.98;0.98;;;6.00;76.50;;;;;;5113778;28;20076;-74
2021/03/07 04:37:16;;;;;;;0.80;0.80;;;6.00;76.40;;;;;;5114364;28;20031;-74
2021/03/07 04:39:42;;;;;;;0.82;0.82;;;6.00;76.40;;;;;;5113480;28;20470;-73
2021/03/07 04:42:08;;;;;;;1.55;1.00;;;6.00;76.30;;;;;;5114176;28;20019;-74
2021/03/07 04:44:34;;;;;;;0.88;0.82;;;6.00;76.30;;;;;;5114135;28;20040;-73
2021/03/07 04:47:00;;;;;;;1.75;1.40;;;5.90;76.20;;;;;;5113238;28;20027;-74
2021/03/07 04:49:25;;;;;;;1.23;1.13;;;5.90;76.30;;;;;;5114319;28;20054;-74
2021/03/07 04:51:51;;;;;;;1.83;1.33;;;5.90;76.30;;;;;;5113928;28;20095;-73
2021/03/07 04:54:18;;;;;;;1.33;0.90;;;5.80;76.40;;;;;;5113380;28;20027;-73
2021/03/07 04:56:44;;;;;;;0.88;0.88;;;5.90;76.60;;;;;;5112354;28;20031;-74
2021/03/07 04:59:10;;;;;;;2.10;1.50;;;5.80;76.40;;;;;;5113788;28;20076;-74
2021/03/07 05:01:36;;;;;;;3.55;1.15;;;5.90;76.50;;;;;;5112447;28;20035;-74
2021/03/07 05:04:06;;;;;;;2.10;1.80;;;5.90;76.40;;;;;;5110891;28;20024;-74
2021/03/07 05:06:39;;;;;;;2.28;1.48;;;5.80;76.30;;;;;;5113347;28;20030;-74
2021/03/07 05:09:06;;;;;;;0.63;0.63;;;5.80;76.40;;;;;;5112419;28;20042;-73
2021/03/07 05:11:32;;;;;;;9.10;1.23;;;5.80;76.50;;;;;;5113179;28;20036;-74
2021/03/07 05:13:58;;;;;;;0.52;0.52;;;5.80;76.50;;;;;;5113264;28;20023;-74
2021/03/07 05:16:24;;;;;;;1.05;0.93;;;5.80;76.50;;;;;;5112605;28;20039;-73
2021/03/07 05:18:50;;;;;;;3.30;2.05;;;5.80;76.50;;;;;;5107763;28;20025;-74
2021/03/07 05:21:15;;;;;;;1.20;1.10;;;5.70;76.50;;;;;;5113063;28;20106;-73
2021/03/07 05:23:42;;;;;;;2.30;1.60;;;5.70;76.50;;;;;;5112378;28;20450;-73
2021/03/07 05:26:07;;;;;;;0.70;0.70;;;5.70;76.50;;;;;;5109793;28;20127;-73
2021/03/07 05:28:33;;;;;;;1.85;1.00;;;5.70;76.50;;;;;;5110351;28;20099;-73
2021/03/07 05:30:59;;;;;;;4.07;1.63;;;5.70;76.50;;;;;;5112198;28;20032;-74
2021/03/07 05:33:24;;;;;;;3.20;1.50;;;5.70;76.50;;;;;;5111444;28;20015;-74
2021/03/07 05:35:50;;;;;;;1.15;1.05;;;5.70;76.60;;;;;;5112713;28;20844;-73
2021/03/07 05:38:16;;;;;;;1.95;1.45;;;5.60;76.50;;;;;;5109180;28;20024;-74
2021/03/07 05:40:42;;;;;;;2.78;1.98;;;5.60;76.60;;;;;;5112649;28;20019;-74
2021/03/07 05:43:09;;;;;;;1.90;1.60;;;5.60;76.50;;;;;;5111876;28;20523;-74
2021/03/07 05:45:35;;;;;;;1.02;0.93;;;5.60;76.60;;;;;;5112531;28;20461;-74
2021/03/07 05:48:01;;;;;;;1.52;1.42;;;5.60;76.80;;;;;;5099069;28;20031;-74
2021/03/07 05:50:27;;;;;;;1.13;1.02;;;5.50;76.90;;;;;;5111950;28;21209;-74
2021/03/07 05:52:55;;;;;;;1.23;1.13;;;5.50;77.00;;;;;;5112660;28;20043;-75
2021/03/07 05:55:22;;;;;;;1.13;1.02;;;5.50;77.10;;;;;;5112638;28;20107;-75
2021/03/07 05:57:49;;;;;;;1.50;1.20;;;5.50;77.10;;;;;;5111908;28;20059;-73
2021/03/07 06:00:16;;;;;;;1.10;0.98;;;5.50;77.30;;;;;;5112544;28;20062;-73
2021/03/07 06:02:42;;;;;;;0.93;0.93;;;5.50;77.20;;;;;;5112589;28;20059;-73
2021/03/07 06:05:10;;;;;;;3.20;1.55;;;5.50;77.10;;;;;;5112212;28;20060;-73
2021/03/07 06:07:35;;;;;;;2.05;1.15;;;5.50;77.10;;;;;;5115507;28;20030;-72
2021/03/07 06:10:23;;;;;;;2.40;1.65;;;5.60;77.20;;;;;;5116980;28;20035;-73
2021/03/07 06:13:01;;;;;;;6.25;1.95;;;5.60;77.20;;;;;;5115609;28;20027;-73
2021/03/07 06:15:28;;;;;;;1.02;1.02;;;5.50;77.00;;;;;;5116575;28;20100;-73
2021/03/07 06:17:54;;;;;;;2.03;1.50;;;5.50;77.10;;;;;;5113269;28;20059;-74
2021/03/07 06:20:24;;;;;;;1.70;1.58;;;5.50;77.10;;;;;;5115641;28;20039;-73
2021/03/07 06:22:59;;;;;;;3.97;1.75;;;5.50;77.00;;;;;;5116280;28;20493;-73
2021/03/07 06:25:25;;;;;;;3.47;2.45;;;5.50;77.10;;;;;;5115644;28;20047;-73
2021/03/07 06:27:52;;;;;;;3.60;2.42;;;5.50;77.00;;;;;;5116084;27;20043;-73
2021/03/07 06:30:24;;;;;;;4.05;2.35;;;5.50;76.90;;;;;;5116636;28;20129;-73
2021/03/07 06:32:57;;;;;;;2.75;2.08;;;5.50;77.00;;;;;;5111738;28;20504;-73
2021/03/07 06:35:24;;;;;;;;;;;5.40;77.00;;;;;;5109082;28;20124;-74
2021/03/07 06:38:04;;;;;;;2.85;2.13;;;5.50;77.00;;;;;;5116303;28;19907;-73
2021/03/07 06:40:33;;;;;;;1.25;1.10;;;5.40;77.00;;;;;;5115340;28;20024;-73
2021/03/07 06:43:01;;;;;;;1.13;1.02;;;5.50;77.10;;;;;;5116638;28;20031;-73
2021/03/07 06:45:38;;;;;;;4.70;3.15;;;5.50;77.20;;;;;;5116285;28;20032;-73
2021/03/07 06:48:04;;;;;;;5.47;2.45;;;5.50;77.00;;;;;;5116023;28;20039;-73
2021/03/07 06:50:30;;;;;;;4.57;2.95;;;5.60;76.90;;;;;;5116193;27;20398;-73
2021/03/07 06:52:58;;;;;;;2.80;1.90;;;5.60;76.60;;;;;;5116512;28;20024;-73
2021/03/07 06:55:41;;;;;;;4.68;2.47;;;5.60;76.40;;;;;;5115566;28;20031;-73
2021/03/07 06:58:17;;;;;;;3.90;2.00;;;5.60;76.50;;;;;;5108288;28;20482;-73
2021/03/07 07:00:44;;;;;;;1.60;1.45;;;5.70;76.40;;;;;;5115351;28;20038;-73
2021/03/07 07:03:15;;;;;;;2.67;2.00;;;5.60;76.30;;;;;;5116184;28;20100;-74
2021/03/07 07:05:51;;;;;;;3.83;2.30;;;5.60;76.30;;;;;;5115747;28;20542;-73
2021/03/07 07:08:40;;;;;;;2.20;1.52;;;5.60;76.30;;;;;;5114650;28;20463;-73
2021/03/07 07:11:07;;;;;;;2.65;1.73;;;5.60;76.30;;;;;;5105939;28;20059;-74
2021/03/07 07:13:43;;;;;;;1.85;1.13;;;5.60;76.20;;;;;;5116108;28;20106;-74
2021/03/07 07:16:10;;;;;;;0.80;0.80;;;5.70;76.30;;;;;;5110595;28;20376;-74
2021/03/07 07:18:39;;;;;;;1.40;1.30;;;5.70;76.20;;;;;;5115396;28;20022;-73
2021/03/07 07:21:07;;;;;;;1.90;1.60;;;5.70;76.10;;;;;;5112454;28;20059;-73
2021/03/07 07:23:33;;;;;;;2.58;1.52;;;5.70;76.10;;;;;;5115108;28;20020;-73
2021/03/07 07:26:00;;;;;;;2.42;1.80;;;5.70;76.10;;;;;;5115549;28;20039;-74
2021/03/07 07:28:26;;;;;;;1.77;1.15;;;5.70;76.00;;;;;;5115430;27;20038;-73
2021/03/07 07:31:28;;;;;;;3.78;1.92;;;5.70;76.00;;;;;;5113598;28;20059;-73
2021/03/07 07:34:02;;;;;;;1.50;1.40;;;5.70;76.10;;;;;;5110506;28;20055;-74
2021/03/07 07:36:31;;;;;;;;;;;5.70;76.00;;;;;;5112179;28;20125;-74
2021/03/07 07:38:58;;;;;;;4.22;2.20;;;5.80;76.00;;;;;;5111209;28;19918;-74
2021/03/07 07:41:33;;;;;;;2.35;1.75;;;5.70;75.90;;;;;;5111025;28;20031;-74
2021/03/07 07:44:01;;;;;;;4.90;2.50;;;5.70;76.10;;;;;;5104711;28;20032;-73
2021/03/07 07:46:27;;;;;;;7.03;1.83;;;5.70;76.10;;;;;;5106130;28;20028;-72
2021/03/07 07:48:53;;;;;;;1.48;1.13;;;5.70;76.20;;;;;;5113412;28;20474;-74
2021/03/07 07:51:33;;;;;;;5.25;2.95;;;5.70;76.30;;;;;;5111114;28;20035;-74
2021/03/07 07:54:02;;;;;;;2.40;2.15;;;5.70;76.30;;;;;;5108037;28;20032;-74
2021/03/07 07:56:43;;;;;;;5.30;2.97;;;5.70;76.30;;;;;;5112375;28;20026;-75
2021/03/07 07:59:13;;;;;;;2.83;1.85;;;5.70;76.90;;;;;;5113109;28;20049;-73
2021/03/07 08:01:52;;;;;;;6.07;2.63;;;5.70;76.30;;;;;;5113180;28;20027;-73
2021/03/07 08:04:27;;;;;;;2.38;1.77;;;5.70;76.30;;;;;;5112806;28;20080;-74
2021/03/07 08:06:54;;;;;;;2.13;1.83;;;5.70;76.40;;;;;;5106598;28;20035;-72
2021/03/07 08:09:36;;;;;;;4.88;3.28;;;5.70;76.40;;;;;;5106902;28;20034;-73
2021/03/07 08:12:47;;;;;;;7.78;3.72;;;5.70;76.50;;;;;;5112869;28;20039;-75
2021/03/07 08:15:25;;;;;;;7.85;3.97;;;5.70;76.50;;;;;;5110013;28;20019;-72
2021/03/07 08:18:03;;;;;;;12.13;2.63;;;5.70;76.40;;;;;;5112176;28;20032;-74
2021/03/07 08:20:37;;;;;;;5.88;3.00;;;5.70;76.50;;;;;;5112773;28;20046;-74
2021/03/07 08:23:08;;;;;;;4.80;2.78;;;5.70;76.70;;;;;;5113411;28;20371;-73
2021/03/07 08:26:00;;;;;;;6.82;2.80;;;5.80;76.80;;;;;;5112543;27;20039;-74
2021/03/07 08:28:29;;;;;;;4.32;2.65;;;5.80;76.80;;;;;;5109901;28;20100;-74
2021/03/07 08:30:56;;;;;;;7.45;3.97;;;5.70;76.80;;;;;;5113380;28;20051;-74
2021/03/07 08:33:25;;;;;;;10.43;2.05;;;5.70;76.70;;;;;;5109744;28;20024;-73
2021/03/07 08:36:10;;;;;;;4.22;1.48;;;5.70;76.70;;;;;;5113246;28;20023;-73
2021/03/07 08:38:37;;;;;;;4.82;2.65;;;5.80;77.00;;;;;;5112627;28;20077;-74
2021/03/07 08:41:03;;;;;;;4.57;3.17;;;5.80;76.90;;;;;;5110725;28;20394;-73
2021/03/07 08:43:29;;;;;;;4.00;2.83;;;5.80;76.90;;;;;;5112120;28;20639;-74
2021/03/07 08:46:01;;;;;;;6.57;4.22;;;5.80;76.80;;;;;;5112009;28;20036;-73
2021/03/07 08:48:28;;;;;;;8.40;3.60;;;5.90;76.80;;;;;;5102536;27;20490;-73
2021/03/07 08:50:55;;;;;;;5.40;3.33;;;5.90;76.70;;;;;;5103621;28;20028;-74
2021/03/07 08:53:29;;;;;;;5.60;3.13;;;5.90;76.50;;;;;;5107233;28;20107;-74
2021/03/07 08:55:55;;;;;;;8.48;3.78;;;5.90;76.40;;;;;;5109932;28;20119;-74
2021/03/07 08:58:24;;;;;;;7.07;4.35;;;5.80;76.30;;;;;;5112032;28;20428;-73
2021/03/07 09:00:53;;;;;;;7.15;3.75;;;5.80;76.50;;;;;;5108972;28;20036;-75
2021/03/07 09:03:20;;;;;;;5.63;3.78;;;5.90;76.50;;;;;;5107618;28;20024;-71
2021/03/07 09:05:47;;;;;;;8.30;3.97;;;5.80;76.50;;;;;;5106239;28;20044;-73
2021/03/07 09:08:13;;;;;;;8.27;3.40;;;5.80;76.50;;;;;;5109108;28;20398;-73
2021/03/07 09:10:40;;;;;;;14.80;6.18;;;5.80;76.50;;;;;;5111826;28;20036;-73
2021/03/07 09:13:07;;;;;;;5.40;2.08;;;5.90;76.70;;;;;;5109653;28;20058;-73
2021/03/07 09:15:34;;;;;;;11.02;4.97;;;5.80;76.50;;;;;;5105919;28;20023;-73
2021/03/07 09:17:59;;;;;;;10.65;5.28;;;5.90;76.80;;;;;;5107921;28;20114;-74
2021/03/07 09:20:44;;;;;;;11.48;4.88;;;5.90;76.90;;;;;;5110442;28;20114;-73
2021/03/07 09:23:46;;;;;;;8.40;5.50;;;5.90;76.90;;;;;;5110748;28;20051;-74
2021/03/07 09:26:18;;;;;;;10.60;5.03;;;5.90;76.80;;;;;;5101331;28;20130;-74
2021/03/07 09:28:51;;;;;;;12.27;5.53;;;5.90;76.70;;;;;;5107468;28;20055;-80
2021/03/07 09:31:23;;;;;;;9.05;4.70;;;5.90;76.80;;;;;;5102486;28;20153;-79
2021/03/07 09:33:49;;;;;;;10.32;5.07;;;5.90;77.00;;;;;;5104771;28;20032;-75
2021/03/07 09:36:16;;;;;;;13.07;6.00;;;5.90;77.00;;;;;;5103790;28;20020;-76
2021/03/07 09:38:48;;;;;;;10.98;5.15;;;5.90;77.10;;;;;;5101167;28;20040;-74
2021/03/07 09:41:17;;;;;;;12.57;6.10;;;6.00;77.20;;;;;;5099620;28;20058;-75
2021/03/07 09:43:48;;;;;;;13.93;6.68;;;6.00;77.40;;;;;;5110617;28;20058;-76
2021/03/07 09:46:15;;;;;;;15.07;5.95;;;6.00;77.20;;;;;;5110310;28;20093;-74
2021/03/07 09:48:43;;;;;;;11.00;6.35;;;6.00;77.20;;;;;;5107533;28;20212;-80
2021/03/07 09:51:15;;;;;;;11.05;6.45;;;6.00;77.40;;;;;;5110857;28;20081;-75
2021/03/07 09:53:42;;;;;;;12.98;7.07;;;6.10;77.60;;;;;;5110118;28;20073;-72
2021/03/07 09:56:26;;;;;;;11.07;5.97;;;6.10;77.50;;;;;;5111464;28;20356;-80
2021/03/07 09:58:52;;;;;;;15.10;7.57;;;6.10;77.50;;;;;;5111540;28;20035;-73
2021/03/07 10:01:18;;;;;;;12.18;6.70;;;6.10;77.60;;;;;;5112304;28;20077;-71
2021/03/07 10:03:46;;;;;;;19.85;7.97;;;6.10;77.70;;;;;;5108034;28;20034;-75
2021/03/07 10:06:19;;;;;;;15.77;9.20;;;6.10;77.70;;;;;;5111689;28;20096;-74
2021/03/07 10:09:04;;;;;;;17.15;8.65;;;6.10;77.70;;;;;;5106279;28;20058;-74
2021/03/07 10:11:31;;;;;;;11.70;6.70;;;6.10;77.70;;;;;;5110715;28;20441;-74
2021/03/07 10:14:03;;;;;;;10.80;6.43;;;6.10;77.70;;;;;;5111961;28;20024;-74
2021/03/07 10:16:31;;;;;;;12.15;6.50;;;6.10;77.90;;;;;;5111267;28;20036;-75
2021/03/07 10:19:07;;;;;;;7.85;4.32;;;6.20;78.00;;;;;;5110867;28;20501;-74
2021/03/07 10:21:33;;;;;;;19.48;7.65;;;6.30;78.00;;;;;;5106775;28;20019;-75
2021/03/07 10:24:07;;;;;;;15.25;8.63;;;6.30;77.80;;;;;;5108745;28;20027;-74
2021/03/07 10:26:35;;;;;;;15.40;7.85;;;6.30;77.70;;;;;;5110435;28;20047;-73
2021/03/07 10:29:19;;;;;;;18.65;8.63;;;6.40;77.50;;;;;;5111265;28;20028;-76
2021/03/07 10:32:04;;;;;;;11.27;6.90;;;6.40;77.50;;;;;;5098562;28;20063;-76
2021/03/07 10:34:47;;;;;;;18.40;8.40;;;6.40;78.40;;;;;;5107109;28;20026;-75
2021/03/07 10:37:36;;;;;;;16.85;8.40;;;6.40;77.90;;;;;;5106008;28;20051;-76
2021/03/07 10:40:04;;;;;;;18.55;8.95;;;6.50;77.30;;;;;;5107909;28;20463;-76
2021/03/07 10:42:38;;;;;;;15.20;7.93;;;6.50;77.40;;;;;;5097177;28;20024;-76
2021/03/07 10:45:23;;;;;;;;;;;6.50;77.20;;;;;;5093811;28;20437;-75
2021/03/07 10:48:02;;;;;;;22.27;10.20;;;6.70;77.90;;;;;;5096322;28;19908;-74
2021/03/07 10:50:29;;;;;;;8.38;5.07;;;6.70;77.10;;;;;;5096981;28;20028;-74
2021/03/07 10:52:54;;;;;;;13.23;6.28;;;6.70;77.00;;;;;;5094003;28;20035;-75
2021/03/07 10:55:21;;;;;;;11.93;7.30;;;6.80;77.00;;;;;;5096821;28;20102;-74
2021/03/07 10:57:46;;;;;;;17.13;6.97;;;6.80;77.00;;;;;;5097044;28;20043;-73
2021/03/07 11:00:13;;;;;;;14.43;7.40;;;6.80;76.80;;;;;;5100455;28;20035;-73
2021/03/07 11:02:39;;;;;;;13.48;7.95;;;6.80;76.60;;;;;;5104372;28;20098;-72
2021/03/07 11:05:05;;;;;;;15.55;8.85;;;6.90;76.90;;;;;;5115457;27;20185;-71
2021/03/07 11:07:31;;;;;;;12.73;6.53;;;7.00;76.80;;;;;;5114637;28;20488;-73
2021/03/07 11:09:56;;;;;;;16.02;8.77;;;6.90;76.40;;;;;;5115386;28;20054;-72
2021/03/07 11:12:22;;;;;;;13.38;7.05;;;7.00;76.60;;;;;;5115331;28;20394;-71
2021/03/07 11:14:48;;;;;;;15.77;8.65;;;7.00;76.70;;;;;;5114679;28;20059;-72
2021/03/07 11:17:14;;;;;;;11.27;6.95;;;7.00;76.40;;;;;;5115341;28;20118;-74
2021/03/07 11:19:39;;;;;;;10.88;5.45;;;7.10;75.70;;;;;;5111234;28;20032;-73
2021/03/07 11:22:05;;;;;;;18.33;7.85;;;7.20;76.20;;;;;;5108963;28;20023;-74
2021/03/07 11:24:31;;;;;;;15.85;7.75;;;7.20;76.00;;;;;;5114241;28;20042;-73
2021/03/07 11:26:56;;;;;;;10.48;5.65;;;7.30;75.90;;;;;;5114757;28;20406;-72
2021/03/07 11:29:22;;;;;;;5.35;3.35;;;7.30;76.10;;;;;;5111867;28;20031;-75
2021/03/07 11:31:48;;;;;;;9.57;5.93;;;7.40;76.20;;;;;;5114076;28;20438;-72
2021/03/07 11:34:13;;;;;;;14.13;6.80;;;7.40;76.00;;;;;;5113683;28;20020;-73
2021/03/07 11:36:39;;;;;;;5.85;3.25;;;7.40;75.70;;;;;;5112864;28;20028;-79
2021/03/07 11:39:06;;;;;;;13.63;7.03;;;7.50;75.80;;;;;;5114463;28;20028;-77
2021/03/07 11:41:31;;;;;;;11.63;6.85;;;7.50;75.70;;;;;;5114651;28;20024;-73
2021/03/07 11:44:00;;;;;;;11.00;5.82;;;7.60;75.60;;;;;;5113824;28;20027;-73
2021/03/07 11:46:26;;;;;;;18.80;10.68;;;7.50;75.40;;;;;;5102379;28;20039;-78
2021/03/07 11:48:52;;;;;;;12.73;7.28;;;7.60;74.10;;;;;;5107591;28;20023;-76
2021/03/07 11:51:17;;;;;;;21.05;11.25;;;7.60;74.80;;;;;;5104203;28;20080;-71
2021/03/07 11:53:43;;;;;;;19.20;8.55;;;7.60;73.70;;;;;;5111603;28;20039;-76
2021/03/07 11:56:09;;;;;;;18.50;9.43;;;7.60;74.10;;;;;;5113354;28;20031;-76
2021/03/07 11:58:34;;;;;;;20.48;8.63;;;7.60;74.30;;;;;;5111959;28;20032;-74
2021/03/07 12:01:00;;;;;;;15.95;8.25;;;7.70;74.30;;;;;;5114336;28;20058;-71
2021/03/07 12:03:29;;;;;;;16.83;7.35;;;7.60;74.70;;;;;;5112835;28;20462;-72
2021/03/07 12:05:55;;;;;;;14.20;7.85;;;7.60;74.70;;;;;;5107058;28;20085;-72
2021/03/07 12:08:20;;;;;;;20.60;6.93;;;7.60;74.30;;;;;;5107702;28;20054;-73
2021/03/07 12:10:46;;;;;;;13.88;7.20;;;7.60;75.00;;;;;;5103471;28;20047;-71
2021/03/07 12:13:12;;;;;;;14.27;7.72;;;7.60;75.00;;;;;;5107319;28;20024;-71
2021/03/07 12:15:37;;;;;;;17.58;9.68;;;7.60;74.50;;;;;;5112071;28;20028;-72
2021/03/07 12:18:03;;;;;;;17.42;7.20;;;7.70;74.50;;;;;;5112837;28;20527;-73
2021/03/07 12:20:29;;;;;;;15.38;8.35;;;7.60;74.50;;;;;;5110247;28;20057;-72
2021/03/07 12:22:55;;;;;;;24.45;11.35;;;7.60;74.50;;;;;;5114064;28;20036;-72
2021/03/07 12:25:20;;;;;;;14.98;6.68;;;7.60;74.60;;;;;;5113045;28;20094;-72
2021/03/07 12:27:46;;;;;;;19.02;9.07;;;7.60;74.70;;;;;;5112979;28;20044;-72
2021/03/07 12:30:15;;;;;;;16.27;6.50;;;7.70;74.80;;;;;;5113868;27;20042;-72
2021/03/07 12:32:41;;;;;;;17.02;8.65;;;7.70;75.10;;;;;;5112023;28;20043;-71
2021/03/07 12:35:07;;;;;;;29.45;13.93;;;7.70;75.80;;;;;;5096851;28;20028;-72
2021/03/07 12:37:33;;;;;;;8.43;4.15;;;7.70;74.70;;;;;;5099332;28;20036;-72
2021/03/07 12:39:59;;;;;;;6.78;3.70;;;7.80;75.20;;;;;;5107981;28;20036;-72
2021/03/07 12:42:25;;;;;;;24.95;10.32;;;7.80;75.60;;;;;;5112389;28;20129;-72
2021/03/07 12:44:53;;;;;;;13.02;6.32;;;7.80;75.40;;;;;;5110697;28;20112;-72
2021/03/07 12:47:19;;;;;;;25.40;12.90;;;7.80;76.10;;;;;;5106761;28;20031;-72
2021/03/07 12:49:45;;;;;;;24.95;12.50;;;7.80;75.20;;;;;;5108270;28;20043;-73
2021/03/07 12:52:10;;;;;;;13.02;7.47;;;7.90;75.30;;;;;;5098353;28;20042;-72
2021/03/07 12:54:36;;;;;;;26.83;13.05;;;7.90;75.20;;;;;;5100630;28;20368;-71
2021/03/07 12:57:02;;;;;;;10.43;5.97;;;7.90;75.20;;;;;;5104203;28;20106;-72
2021/03/07 12:59:29;;;;;;;30.35;9.70;;;7.90;75.40;;;;;;5101521;28;20375;-71
2021/03/07 13:01:54;;;;;;;19.83;9.57;;;7.90;75.60;;;;;;5097777;28;20541;-76
2021/03/07 13:04:23;;;;;;;22.00;9.63;;;7.90;75.80;;;;;;5110103;28;20035;-71